Flight Track Log - Related Links

Times and Time Zones

All times are in EDT time to prevent confusion due to time zone crossing. See the DAL1830 flight status page for this flight to view local times or setup timezone preferences in your user account.

Time Position Orientation Groundspeed Altitude Reporting Facility
EDT Latitude Longitude Course Direction KTS MPH feet Rate Location/Type
Mon 07:12:05 PM 40.7714 -111.9969 90° East 170 196 5,200  Level Salt Lake Center
Mon 07:13:00 PM 40.7525 -112.0544 247° West 227 261 6,400 2,281 Climbing Salt Lake Center
Mon 07:14:00 PM 40.9729 -112.2333 North  Level FlightAware Approximate
Mon 07:14:06 PM 40.8253 -112.0864 342° North 292 336 9,800  Level Salt Lake Center
Mon 07:15:00 PM 41.0167 -112.1079 90° East  Level FlightAware Approximate
Mon 07:15:17 PM 40.8706 -111.9681 63° Northeast 325 374 12,100  Level Salt Lake Center
Mon 07:16:00 PM 41.0167 -111.9444 90° East  Level FlightAware Approximate
Mon 07:16:18 PM 40.9069 -111.8511 68° East 349 402 13,900  Level Salt Lake Center
Mon 07:17:00 PM 41.0167 -111.7809 90° East  Level FlightAware Approximate
Mon 07:17:19 PM 40.9486 -111.7206 67° East 395 455 16,000  Level Salt Lake Center
Mon 07:18:21 PM 40.9911 -111.5839 68° East 410 472 18,000 2,000 Climbing Salt Lake Center
Mon 07:19:22 PM 41.0361 -111.4408 67° East 424 488 20,100 2,195 Climbing Salt Lake Center
Mon 07:21:00 PM 41.0648 -111.1798 79° East  Level FlightAware Approximate
Mon 07:22:27 PM 41.1083 -110.9458 79° East 423 487 27,000  Level Salt Lake Center
Mon 07:24:29 PM 41.1892 -110.6383 71° East 439 505 29,200 1,207 Climbing Salt Lake Center
Mon 07:25:31 PM 41.2267 -110.4872 72° East 449 517 30,700 1,463 Climbing Salt Lake Center
Mon 07:26:32 PM 41.2714 -110.3125 71° East 448 516 32,200 857 Climbing Salt Lake Center
Mon 07:28:00 PM 41.3109 -110.1502 72° East  Level FlightAware Approximate
Mon 07:29:01 PM 41.3672 -109.9286 72° East 460 529 33,700  Level Denver Center
Mon 07:29:37 PM 41.3936 -109.8244 71° East 467 537 34,000 433 Climbing Salt Lake Center
Mon 07:30:38 PM 41.4319 -109.6669 72° East 467 537 34,400 750 Climbing Salt Lake Center
Mon 07:32:41 PM 41.5161 -109.3261 72° East 466 536 36,300 848 Climbing Salt Lake Center
Mon 07:33:42 PM 41.5550 -109.1661 72° East 465 535 37,000 341 Climbing Salt Lake Center
Mon 07:34:44 PM 41.5969 -108.9783 73° East 464 534 37,000  Level Salt Lake Center
Mon 07:36:15 PM 41.6275 -108.7364 80° East 457 526 37,000  Level Denver Center
Mon 07:36:47 PM 41.6367 -108.6592 81° East 454 522 37,000  Level Salt Lake Center
Mon 07:38:31 PM 41.6711 -108.3889 80° East 458 527 37,000  Level Denver Center
Mon 07:38:50 PM 41.6803 -108.3092 81° East 461 531 37,000  Level Salt Lake Center
Mon 07:40:36 PM 41.7181 -108.0108 80° East 463 533 37,000  Level Denver Center
Mon 07:42:56 PM 41.7678 -107.6078 80° East 459 528 37,000  Level Salt Lake Center
Mon 07:43:42 PM 41.7825 -107.4703 82° East 460 529 37,000  Level Denver Center
Mon 07:44:44 PM 41.8014 -107.3072 81° East 462 532 37,000  Level Denver Center
Mon 07:45:46 PM 41.8206 -107.1467 81° East 459 528 37,000  Level Denver Center
Mon 07:46:48 PM 41.8419 -106.9567 81° East 461 531 37,000  Level Denver Center
Mon 07:47:50 PM 41.8608 -106.7939 81° East 461 531 37,000  Level Denver Center
Mon 07:48:52 PM 41.8817 -106.6025 82° East 464 534 37,000  Level Denver Center
Mon 07:49:54 PM 41.9017 -106.4228 81° East 463 533 37,000  Level Denver Center
Mon 07:50:56 PM 41.9178 -106.2567 83° East 467 537 37,000  Level Denver Center
Mon 07:51:58 PM 41.9389 -106.0661 81° East 465 535 37,000  Level Denver Center
Mon 07:53:00 PM 41.9553 -105.9014 82° East 466 536 37,000  Level Denver Center
Mon 07:54:02 PM 41.9772 -105.7092 81° East 468 539 37,000  Level Denver Center
Mon 07:56:06 PM 42.0103 -105.3522 83° East 463 533 37,000  Level Denver Center
Mon 07:57:08 PM 42.0278 -105.1881 82° East 466 536 37,000  Level Denver Center
Mon 07:58:10 PM 42.0464 -104.9969 82° East 466 536 37,000  Level Denver Center
Mon 07:59:12 PM 42.0611 -104.8331 83° East 463 533 37,000  Level Denver Center
Mon 08:00:26 PM 42.0811 -104.6139 83° East 464 534 37,000  Level Denver Center
Mon 08:02:00 PM 42.0976 -104.3555 85° East  Level FlightAware Approximate
Mon 08:03:32 PM 42.1283 -104.0908 84° East 468 539 37,000  Level Denver Center
Mon 08:04:34 PM 42.1450 -103.8944 83° East 474 545 37,000  Level Denver Center
Mon 08:06:38 PM 42.1758 -103.5283 83° East 476 548 37,000  Level Denver Center
Mon 08:07:40 PM 42.1889 -103.3575 84° East 480 552 37,000  Level Denver Center
Mon 08:09:00 PM 42.1967 -103.2030 84° East  Level FlightAware Approximate
Mon 08:09:00 PM 42.2046 -103.1374 84° East  Level FlightAware Approximate
Mon 08:09:44 PM 42.2192 -102.9831 84° East 487 560 37,000  Level Denver Center
Mon 08:10:46 PM 42.2350 -102.7794 84° East 489 563 37,000  Level Denver Center
Mon 08:11:48 PM 42.2475 -102.6056 84° East 488 562 37,000  Level Denver Center
Mon 08:13:00 PM 42.2571 -102.4068 86° East  Level FlightAware Approximate
Mon 08:13:52 PM 42.2750 -102.2297 86° East 488 562 37,000  Level Denver Center
Mon 08:14:53 PM 42.2900 -102.0283 84° East 485 558 37,000  Level Denver Center
Mon 08:15:55 PM 42.3031 -101.8542 84° East 487 560 37,000  Level Denver Center
Mon 08:17:59 PM 42.3253 -101.4786 85° East 476 548 37,000  Level Denver Center
Mon 08:19:01 PM 42.3364 -101.3061 85° East 480 552 37,000  Level Denver Center
Mon 08:21:04 PM 42.3594 -100.9339 85° East 479 551 37,000  Level Denver Center
Mon 08:23:08 PM 42.3806 -100.5619 85° East 478 550 37,000  Level Denver Center
Mon 08:24:10 PM 42.3894 -100.4203 85° East 477 549 37,000  Level Denver Center
Mon 08:26:33 PM 42.4122 -99.9603 86° East 474 545 37,000  Level Minneapolis Center
Mon 08:27:47 PM 42.4242 -99.7433 86° East 478 550 37,000  Level Minneapolis Center
Mon 08:28:49 PM 42.4322 -99.5636 86° East 479 551 37,000  Level Minneapolis Center
Mon 08:29:31 PM 42.4386 -99.4197 87° East 475 547 37,000  Level Denver Center
Mon 08:30:33 PM 42.4472 -99.2383 86° East 479 551 37,000  Level Denver Center
Mon 08:31:35 PM 42.4547 -99.0572 87° East 479 551 37,000  Level Denver Center
Mon 08:31:56 PM 42.4589 -98.9858 85° East 481 554 37,000  Level Minneapolis Center
Mon 08:32:58 PM 42.4661 -98.8069 87° East 476 548 37,000  Level Minneapolis Center
Mon 08:34:00 PM 42.4739 -98.6264 87° East 477 549 37,000  Level Minneapolis Center
Mon 08:35:02 PM 42.4831 -98.4461 86° East 477 549 37,000  Level Minneapolis Center
Mon 08:36:04 PM 42.4925 -98.2664 86° East 477 549 37,000  Level Minneapolis Center
Mon 08:38:08 PM 42.5092 -97.8706 87° East 476 548 37,000  Level Minneapolis Center
Mon 08:40:00 PM 42.5217 -97.5599 87° East  Level FlightAware Approximate
Mon 08:41:14 PM 42.5319 -97.3242 87° East 472 543 37,000  Level Minneapolis Center
Mon 08:42:16 PM 42.5394 -97.1461 87° East 472 543 37,000  Level Minneapolis Center
Mon 08:43:18 PM 42.5456 -96.9717 87° East 466 536 37,000  Level Minneapolis Center
Mon 08:44:33 PM 42.5514 -96.7956 87° East 467 537 37,000  Level Minneapolis Center
Mon 08:45:35 PM 42.5592 -96.5803 87° East 471 542 37,000  Level Minneapolis Center
Mon 08:46:37 PM 42.5656 -96.4061 87° East 467 537 37,000  Level Minneapolis Center
Mon 08:47:39 PM 42.5692 -96.2631 88° East 469 540 37,000  Level Minneapolis Center
Mon 08:48:41 PM 42.5764 -96.0147 88° East 470 541 37,000  Level Minneapolis Center
Mon 08:49:43 PM 42.5808 -95.8364 88° East 472 543 37,000  Level Minneapolis Center
Mon 08:51:00 PM 42.5847 -95.6224 89° East  Level FlightAware Approximate
Mon 08:51:47 PM 42.5892 -95.4833 89° East 469 540 37,000  Level Minneapolis Center
Mon 08:52:49 PM 42.5939 -95.3083 88° East 465 535 37,000  Level Minneapolis Center
Mon 08:53:51 PM 42.5975 -95.1356 88° East 461 531 37,000  Level Minneapolis Center
Mon 08:55:00 PM 42.5986 -94.9491 89° East  Level FlightAware Approximate
Mon 08:55:56 PM 42.6044 -94.7536 89° East 458 527 37,000  Level Minneapolis Center
Mon 08:57:09 PM 42.6069 -94.5956 89° East 460 529 37,000  Level Minneapolis Center
Mon 08:58:12 PM 42.6086 -94.3878 89° East 463 533 37,000  Level Minneapolis Center
Mon 09:00:11 PM 42.6122 -94.0439 89° East 458 527 37,000  Level Chicago Center
Mon 09:01:31 PM 42.6136 -93.8075 89° East 455 524 37,000  Level Minneapolis Center
Mon 09:02:33 PM 42.6153 -93.6372 89° East 456 525 37,000  Level Minneapolis Center
Mon 09:04:19 PM 42.6150 -93.3347 90° East 447 514 37,000  Level Chicago Center
Mon 09:04:37 PM 42.6156 -93.2683 89° East 450 518 37,000  Level Minneapolis Center
Mon 09:06:23 PM 42.6158 -92.9658 90° East 448 516 37,000  Level Chicago Center
Mon 09:06:41 PM 42.6153 -92.9339 91° East 448 516 37,000  Level Minneapolis Center
Mon 09:08:26 PM 42.6136 -92.6303 90° East 452 520 37,000  Level Chicago Center
Mon 09:08:45 PM 42.6150 -92.5636 88° East 451 519 37,000  Level Minneapolis Center
Mon 09:09:47 PM 42.6133 -92.3986 91° East 446 513 37,000  Level Minneapolis Center
Mon 09:10:49 PM 42.6119 -92.2344 91° East 441 507 37,000  Level Minneapolis Center
Mon 09:11:32 PM 42.6106 -92.1025 91° East 442 509 37,000  Level Chicago Center
Mon 09:12:34 PM 42.6089 -91.9383 91° East 442 509 37,000  Level Chicago Center
Mon 09:13:36 PM 42.6069 -91.7758 91° East 441 507 37,000  Level Chicago Center
Mon 09:14:38 PM 42.6050 -91.6131 91° East 444 511 37,000  Level Chicago Center
Mon 09:15:40 PM 42.6156 -91.4175 86° East 446 513 37,000  Level Chicago Center
Mon 09:16:41 PM 42.6364 -91.2567 80° East 445 512 37,000  Level Chicago Center
Mon 09:17:43 PM 42.6575 -91.0925 80° East 446 513 37,000  Level Chicago Center
Mon 09:18:45 PM 42.6786 -90.9300 80° East 445 512 37,000  Level Chicago Center
Mon 09:19:47 PM 42.6864 -90.7333 87° East 442 509 37,000  Level Chicago Center
Mon 09:20:48 PM 42.6844 -90.5700 91° East 439 505 37,000  Level Chicago Center
Mon 09:22:00 PM 42.6816 -90.3690 91° East  Level FlightAware Approximate
Mon 09:22:52 PM 42.6831 -90.2417 91° East 440 506 37,000  Level Chicago Center
Mon 09:23:54 PM 42.6811 -90.0769 91° East 441 507 37,000  Level Chicago Center
Mon 09:24:55 PM 42.6794 -89.8883 91° East 439 505 37,000  Level Chicago Center
Mon 09:25:57 PM 42.6778 -89.7225 91° East 440 506 37,000  Level Chicago Center
Mon 09:26:59 PM 42.6750 -89.5544 91° East 443 510 37,000  Level Chicago Center
Mon 09:28:00 PM 42.6731 -89.3894 91° East 439 505 37,000  Level Chicago Center
Mon 09:29:02 PM 42.6706 -89.1972 91° East 436 502 37,000  Level Chicago Center
Mon 09:30:04 PM 42.6675 -89.0328 91° East 436 502 37,000  Level Chicago Center
Mon 09:31:05 PM 42.6642 -88.8694 92° East 434 499 37,000  Level Chicago Center
Mon 09:32:07 PM 42.6619 -88.7078 91° East 429 494 37,000  Level Chicago Center
Mon 09:33:08 PM 42.6581 -88.5478 92° East 426 490 37,000  Level Chicago Center
Mon 09:34:10 PM 42.6542 -88.3867 92° East 427 491 37,000  Level Chicago Center
Mon 09:36:00 PM 42.6405 -88.0818 92° East  Level FlightAware Approximate
Mon 09:37:15 PM 42.6414 -87.8764 92° East 430 495 37,000  Level Chicago Center
Mon 09:38:16 PM 42.6364 -87.7144 92° East 430 495 37,000  Level Chicago Center
Mon 09:39:18 PM 42.6311 -87.5525 92° East 430 495 37,000  Level Chicago Center
Mon 09:40:19 PM 42.6258 -87.3819 92° East 430 495 37,000  Level Chicago Center
Mon 09:41:21 PM 42.6211 -87.2203 92° East 430 495 37,000  Level Chicago Center
Mon 09:42:22 PM 42.6153 -87.0597 93° East 428 493 37,000  Level Chicago Center
Mon 09:43:24 PM 42.6097 -86.8981 93° East 432 497 37,000  Level Chicago Center
Mon 09:45:27 PM 42.5972 -86.5783 93° East 427 491 37,000  Level Chicago Center
Mon 09:46:28 PM 42.5897 -86.3858 93° East 428 493 37,000  Level Chicago Center
Mon 09:47:30 PM 42.5825 -86.2261 93° East 427 491 37,000  Level Chicago Center
Mon 09:48:31 PM 42.5761 -86.0656 93° East 429 494 37,000  Level Chicago Center
Mon 09:49:33 PM 42.5694 -85.9061 93° East 429 494 37,000  Level Chicago Center
Mon 09:50:34 PM 42.5614 -85.7464 94° East 428 493 37,000  Level Chicago Center
Mon 09:51:35 PM 42.5542 -85.5878 93° East 427 491 37,000  Level Chicago Center
Mon 09:52:37 PM 42.5453 -85.3942 94° East 430 495 37,000  Level Chicago Center
Mon 09:53:38 PM 42.5369 -85.2336 94° East 429 494 37,000  Level Chicago Center
Mon 09:54:40 PM 42.5289 -85.0733 94° East 428 493 37,000  Level Chicago Center
Mon 09:56:42 PM 42.5117 -84.7522 94° East 430 495 37,000  Level Chicago Center
Mon 09:57:36 PM 42.5022 -84.6108 95° East 427 491 37,000  Level Cleveland Center
Mon 09:58:36 PM 42.4931 -84.4497 94° East 427 491 37,000  Level Cleveland Center
Mon 09:59:36 PM 42.4817 -84.2914 96° East 427 491 37,000  Level Cleveland Center
Mon 10:00:36 PM 42.4722 -84.1303 94° East 427 491 37,000  Level Cleveland Center
Mon 10:02:36 PM 42.4544 -83.8111 94° East 427 491 37,000  Level Cleveland Center
Mon 10:03:36 PM 42.4444 -83.6503 95° East 427 491 37,000  Level Cleveland Center
Mon 10:05:00 PM 42.4290 -83.4258 95° East  Level FlightAware Approximate
Mon 10:06:36 PM 42.4086 -83.1536 94° East 432 497 37,000  Level Cleveland Center
Mon 10:08:00 PM 42.3882 -82.9300 97° East  Level FlightAware Approximate
Mon 10:08:36 PM 42.3861 -82.8292 97° East 427 491 37,000  Level Cleveland Center
Mon 10:09:36 PM 42.3767 -82.6714 95° East 427 491 37,000  Level Cleveland Center
Mon 10:10:36 PM 42.3689 -82.5139 94° East 427 491 37,000  Level Cleveland Center
Mon 10:11:36 PM 42.3650 -82.3647 92° East 421 484 37,000  Level Cleveland Center
Mon 10:12:00 PM 42.3604 -82.3045 94° East  Level FlightAware Approximate
Mon 10:13:00 PM 42.3520 -82.1402 94° East  Level FlightAware Approximate
Mon 10:13:36 PM 42.3528 -82.0611 94° East 406 467 37,000  Level Cleveland Center
Mon 10:14:36 PM 42.3461 -81.9206 94° East 406 467 37,000  Level Cleveland Center
Mon 10:15:36 PM 42.3375 -81.7686 94° East 406 467 37,000  Level Cleveland Center
Mon 10:16:36 PM 42.3306 -81.6139 93° East 413 475 37,000  Level Cleveland Center
Mon 10:18:36 PM 42.3161 -81.3047 94° East 407 468 37,000  Level Cleveland Center
Mon 10:19:36 PM 42.3089 -81.1364 93° East 407 468 37,000  Level Cleveland Center
Mon 10:20:36 PM 42.3011 -80.9817 94° East 407 468 37,000  Level Cleveland Center
Mon 10:21:36 PM 42.2933 -80.8244 94° East 412 474 37,000  Level Cleveland Center
Mon 10:22:36 PM 42.2831 -80.6675 95° East 412 474 37,000  Level Cleveland Center
Mon 10:23:36 PM 42.2747 -80.5158 94° East 407 468 37,000  Level Cleveland Center
Mon 10:25:00 PM 42.2610 -80.2876 95° East  Level FlightAware Approximate
Mon 10:25:36 PM 42.2575 -80.2017 95° East 407 468 37,000  Level Cleveland Center
Mon 10:26:36 PM 42.2483 -80.0475 95° East 407 468 37,000  Level Cleveland Center
Mon 10:27:36 PM 42.2394 -79.8933 94° East 407 468 37,000  Level Cleveland Center
Mon 10:28:36 PM 42.2300 -79.7364 95° East 407 468 37,000  Level Cleveland Center
Mon 10:30:36 PM 42.2083 -79.4197 95° East 417 480 37,000  Level Cleveland Center
Mon 10:31:36 PM 42.2006 -79.2631 94° East 422 486 37,000  Level Cleveland Center
Mon 10:32:36 PM 42.1819 -79.1064 99° East 422 486 37,000  Level Cleveland Center
Mon 10:33:36 PM 42.1467 -78.9589 108° East 422 486 37,000  Level Cleveland Center
Mon 10:34:36 PM 42.1111 -78.8086 108° East 416 479 37,000  Level Cleveland Center
Mon 10:35:36 PM 42.0731 -78.6614 109° East 416 479 37,000  Level Cleveland Center
Mon 10:36:36 PM 42.0353 -78.5117 109° East 421 484 37,000  Level Cleveland Center
Mon 10:39:07 PM 41.9403 -78.1461 109° East 428 493 37,000  Level New York Center
Mon 10:40:06 PM 41.9036 -77.9972 108° East 421 484 37,000  Level New York Center
Mon 10:41:09 PM 41.8625 -77.8478 110° East 421 484 37,000  Level New York Center
Mon 10:42:07 PM 41.8233 -77.7017 110° East 421 484 37,000  Level New York Center
Mon 10:43:05 PM 41.7842 -77.5500 109° East 421 484 37,000  Level New York Center
Mon 10:44:06 PM 41.7444 -77.4014 110° East 421 484 37,000 -248 Level New York Center
Mon 10:45:06 PM 41.7050 -77.2503 109° East 421 484 36,500 -694 Descending New York Center
Mon 10:46:07 PM 41.6650 -77.1019 110° East 421 484 35,600 -958 Descending New York Center
Mon 10:47:05 PM 41.6250 -76.9539 110° East 421 484 34,600 -958 Descending New York Center
Mon 10:48:06 PM 41.5847 -76.8031 110° East 426 490 33,700 -533 Descending New York Center
Mon 10:50:05 PM 41.5053 -76.5161 110° East 426 490 33,000 -233 Descending New York Center
Mon 10:51:06 PM 41.4667 -76.3661 109° East 426 490 33,000  Level New York Center
Mon 10:52:07 PM 41.4197 -76.2100 112° Southeast 431 496 33,000  Level New York Center
Mon 10:53:05 PM 41.3767 -76.0544 110° East 444 511 33,000 -153 Level New York Center
Mon 10:54:05 PM 41.3278 -75.8903 112° Southeast 439 505 32,700 -1,856 Descending New York Center
Mon 10:56:06 PM 41.2419 -75.6025 112° Southeast 444 511 27,400 -2,667 Descending New York Center
Mon 10:57:05 PM 41.1936 -75.4556 114° Southeast 444 511 24,700 -2,182 Descending New York Center
Mon 10:58:07 PM 41.1450 -75.3117 114° Southeast 433 498 23,000 -900 Descending New York Center
Mon 11:00:05 PM 41.0511 -75.0386 114° Southeast 414 476 22,000 -337 Descending New York Center
Mon 11:01:05 PM 41.0061 -74.9008 113° Southeast 409 471 22,000  Level New York Center
Mon 11:02:06 PM 40.9800 -74.7456 103° East 404 465 22,000 -50 Level New York Center
Mon 11:03:04 PM 40.9664 -74.5936 97° East 394 453 21,900 -200 Descending New York Center
Mon 11:04:06 PM 40.9503 -74.4469 98° East 394 453 21,600 -1,100 Descending New York Center
Mon 11:05:04 PM 40.9297 -74.3031 101° East 400 460 19,700 -1,311 Descending New York Center
Mon 11:06:05 PM 40.8931 -74.1969 115° Southeast 374 430 19,000 -634 Descending New York Center
Mon 11:07:07 PM 40.8550 -74.0797 113° Southeast 328 377 18,400 -1,440 Descending New York Center
Mon 11:07:45 PM 40.8333 -74.0000 110° East 342 394 16,600 -2,478 Descending New York TRACON
Mon 11:08:39 PM 40.8000 -73.9000 114° Southeast 338 389 14,600 -1,850 Descending New York TRACON
Mon 11:09:45 PM 40.7333 -73.8000 131° Southeast 302 348 12,900 -800 Descending New York TRACON
Mon 11:10:39 PM 40.6833 -73.7333 135° Southeast 300 345 13,000 -650 Climbing New York TRACON
Mon 11:11:45 PM 40.6000 -73.7000 163° South 322 371 11,600 -1,857 Descending New York TRACON
Mon 11:12:45 PM 40.5333 -73.6833 169° South 251 289 9,100 -2,526 Descending New York TRACON
Mon 11:13:39 PM 40.4667 -73.7167 201° Southwest 266 306 6,800 -2,650 Descending New York TRACON
Mon 11:14:45 PM 40.4167 -73.7833 225° Southwest 257 296 3,800 -2,400 Descending New York TRACON
Mon 11:15:39 PM 40.4000 -73.8500 252° West 259 298 2,000 -900 Descending New York TRACON
Mon 11:16:45 PM 40.4500 -73.8833 333° Northwest 227 261 2,000 -50 Level New York TRACON
Mon 11:17:39 PM 40.5000 -73.8667 14° North 195 224 1,900 -111 Descending New York TRACON

Login

Don't have an account? Register now (free) for customized features, flight alerts, and more!